createdAt,value
2022-10-29T00:02:30.963Z,76.70
2022-10-29T00:05:33.358Z,75.93
2022-10-29T00:08:40.912Z,75.35
2022-10-29T00:11:43.004Z,76.30
2022-10-29T00:14:45.073Z,74.22
2022-10-29T00:17:47.142Z,75.53
2022-10-29T00:20:49.775Z,76.04
2022-10-29T00:23:52.165Z,75.66
2022-10-29T00:26:54.280Z,77.04
2022-10-29T00:29:56.670Z,75.23
2022-10-29T00:32:58.831Z,76.49
2022-10-29T00:36:16.224Z,75.58
2022-10-29T00:39:18.480Z,75.49
2022-10-29T00:42:20.536Z,77.47
2022-10-29T00:45:22.680Z,75.43
2022-10-29T00:48:25.324Z,75.69
2022-10-29T00:51:27.441Z,75.62
2022-10-29T00:54:30.698Z,73.99
2022-10-29T00:57:48.789Z,75.15
2022-10-29T01:00:50.936Z,75.10
2022-10-29T01:03:54.252Z,74.21
2022-10-29T01:06:56.331Z,74.57
2022-10-29T01:09:58.426Z,74.62
2022-10-29T01:14:07.975Z,73.09
2022-10-29T01:18:06.221Z,72.78
2022-10-29T01:21:35.625Z,73.03
2022-10-29T01:25:15.446Z,74.69
2022-10-29T01:29:08.582Z,77.18
2022-10-29T01:32:15.465Z,77.70
2022-10-29T01:35:25.606Z,77.56
2022-10-29T01:38:48.659Z,79.39
2022-10-29T01:42:23.916Z,79.13
2022-10-29T01:45:39.040Z,79.48
2022-10-29T01:48:44.624Z,78.35
2022-10-29T01:51:47.336Z,77.36
2022-10-29T01:54:49.500Z,78.08
2022-10-29T01:57:51.655Z,77.09
2022-10-29T02:01:31.050Z,76.22
2022-10-29T02:04:43.769Z,76.20
2022-10-29T02:08:27.243Z,76.40
2022-10-29T02:12:17.275Z,77.07
2022-10-29T02:15:37.705Z,77.57
2022-10-29T02:18:48.829Z,77.04
2022-10-29T02:21:51.614Z,76.33
2022-10-29T02:24:53.676Z,76.88
2022-10-29T02:27:56.206Z,75.24
2022-10-29T02:30:58.431Z,75.88
2022-10-29T02:34:00.503Z,75.17
2022-10-29T02:37:02.568Z,76.08
2022-10-29T02:40:05.217Z,77.76
2022-10-29T02:43:07.361Z,77.57
2022-10-29T02:46:18.258Z,77.84
2022-10-29T02:49:20.328Z,77.38
2022-10-29T02:52:22.417Z,77.18
2022-10-29T02:55:24.565Z,76.73
2022-10-29T02:58:26.664Z,77.10
2022-10-29T03:01:28.948Z,75.92
2022-10-29T03:04:31.143Z,76.08
2022-10-29T03:07:37.314Z,76.16
2022-10-29T03:10:39.431Z,77.89
2022-10-29T03:13:41.599Z,77.34
2022-10-29T03:16:43.661Z,79.58
2022-10-29T03:19:45.733Z,80.04
2022-10-29T03:22:47.814Z,80.76
2022-10-29T03:25:55.906Z,80.93
2022-10-29T03:28:58.482Z,81.52
2022-10-29T03:32:00.586Z,81.24
2022-10-29T03:35:02.658Z,81.16
2022-10-29T03:38:04.772Z,82.06
2022-10-29T03:41:10.504Z,81.26
2022-10-29T03:44:12.856Z,80.28
2022-10-29T03:47:14.928Z,80.71
2022-10-29T03:50:17.202Z,81.15
2022-10-29T03:53:19.260Z,82.88
2022-10-29T03:56:21.331Z,82.31
2022-10-29T03:59:23.407Z,83.15
2022-10-29T04:02:25.675Z,83.81
2022-10-29T04:05:27.852Z,83.70
2022-10-29T04:08:29.967Z,83.71
2022-10-29T04:11:32.063Z,83.60
2022-10-29T04:14:34.505Z,82.61
2022-10-29T04:17:36.693Z,81.12
2022-10-29T04:21:23.074Z,80.13
2022-10-29T04:30:45.912Z,79.15
2022-10-29T04:33:48.061Z,81.18
2022-10-29T04:36:52.207Z,82.11
2022-10-29T04:39:54.443Z,81.57
2022-10-29T04:42:56.873Z,81.50
2022-10-29T04:45:59.516Z,82.00
2022-10-29T04:49:01.700Z,80.77
2022-10-29T04:52:04.052Z,80.32
2022-10-29T04:55:06.477Z,79.95
2022-10-29T04:58:14.995Z,80.26
2022-10-29T05:01:17.189Z,78.82
2022-10-29T05:04:19.448Z,78.90
2022-10-29T05:07:21.565Z,78.67
2022-10-29T05:10:25.274Z,79.38
2022-10-29T05:13:27.371Z,78.52
2022-10-29T05:16:29.474Z,78.14
2022-10-29T05:19:31.587Z,77.91
2022-10-29T05:22:33.679Z,77.62
2022-10-29T05:25:37.921Z,78.55
2022-10-29T05:28:40.037Z,77.61
2022-10-29T05:31:42.169Z,77.80
2022-10-29T05:34:44.487Z,77.53
2022-10-29T05:37:53.900Z,77.95
2022-10-29T05:40:59.108Z,77.70
2022-10-29T05:44:01.256Z,78.07
2022-10-29T05:47:03.969Z,78.65
2022-10-29T05:50:06.709Z,77.94
2022-10-29T05:53:12.631Z,78.72
2022-10-29T05:56:14.930Z,78.43
2022-10-29T05:59:17.099Z,77.98
2022-10-29T06:02:19.384Z,78.49
2022-10-29T06:05:22.088Z,80.23
2022-10-29T06:08:24.233Z,82.37
2022-10-29T06:11:26.407Z,81.79
2022-10-29T06:14:28.570Z,81.45
2022-10-29T06:17:30.742Z,80.99
2022-10-29T06:20:32.911Z,79.17
2022-10-29T06:23:35.109Z,79.97
2022-10-29T06:26:37.534Z,78.56
2022-10-29T06:29:39.769Z,81.24
2022-10-29T06:32:41.856Z,79.70
2022-10-29T06:35:44.033Z,79.25
2022-10-29T06:38:46.160Z,80.35
2022-10-29T06:41:48.316Z,80.92
2022-10-29T06:44:54.051Z,80.58
2022-10-29T06:47:56.622Z,79.69
2022-10-29T06:51:00.318Z,82.64
2022-10-29T06:54:02.445Z,82.46
2022-10-29T06:57:04.576Z,83.73
2022-10-29T07:00:08.663Z,84.82
2022-10-29T07:03:15.168Z,83.77
2022-10-29T07:06:17.339Z,83.38
2022-10-29T07:09:19.525Z,83.20
2022-10-29T07:12:21.728Z,82.63
2022-10-29T07:15:27.359Z,84.15
2022-10-29T07:18:30.493Z,81.32
2022-10-29T07:21:32.621Z,80.95
2022-10-29T07:24:34.785Z,80.34
2022-10-29T07:27:36.939Z,80.75
2022-10-29T07:30:39.289Z,81.90
2022-10-29T07:33:41.401Z,81.41
2022-10-29T07:36:43.533Z,82.60
2022-10-29T07:39:45.695Z,82.91
2022-10-29T07:42:53.133Z,83.87
2022-10-29T07:45:55.842Z,84.12
2022-10-29T07:48:57.952Z,85.29
2022-10-29T07:52:00.025Z,84.69
2022-10-29T07:55:02.874Z,83.64
2022-10-29T07:58:08.104Z,83.23
2022-10-29T08:01:10.260Z,83.96
2022-10-29T08:04:12.426Z,84.28
2022-10-29T08:07:14.497Z,84.67
2022-10-29T08:10:16.981Z,85.77
2022-10-29T08:13:19.042Z,87.21
2022-10-29T08:16:21.108Z,86.55
2022-10-29T08:19:23.250Z,88.69
2022-10-29T08:22:25.400Z,88.60
2022-10-29T08:25:27.549Z,89.97
2022-10-29T08:28:33.172Z,91.03
2022-10-29T08:31:37.655Z,90.15
2022-10-29T08:34:39.725Z,88.72
2022-10-29T08:37:45.183Z,87.76
2022-10-29T08:41:08.275Z,85.94
2022-10-29T08:44:28.771Z,86.07
2022-10-29T08:47:30.976Z,85.91
2022-10-29T08:50:41.213Z,86.85
2022-10-29T08:53:54.221Z,85.53
2022-10-29T08:57:14.013Z,85.90
2022-10-29T09:00:19.473Z,85.60
2022-10-29T09:03:21.547Z,85.25
2022-10-29T09:06:29.436Z,84.64
2022-10-29T09:09:51.261Z,84.44
2022-10-29T09:13:46.073Z,83.73
2022-10-29T09:16:56.953Z,83.48
2022-10-29T09:20:02.034Z,83.13
2022-10-29T09:23:09.536Z,82.51
2022-10-29T09:26:37.373Z,81.30
2022-10-29T09:29:54.163Z,81.46
2022-10-29T09:33:07.462Z,80.16
2022-10-29T09:36:21.377Z,81.00
2022-10-29T09:39:37.347Z,80.70
2022-10-29T09:42:40.334Z,81.87
2022-10-29T09:46:15.345Z,82.08
2022-10-29T09:49:55.422Z,82.95
2022-10-29T09:52:57.835Z,83.36
2022-10-29T09:56:00.180Z,81.84
2022-10-29T09:59:40.813Z,81.14
2022-10-29T10:03:04.288Z,81.04
2022-10-29T10:06:10.525Z,80.64
2022-10-29T10:09:12.578Z,81.27
2022-10-29T10:12:14.627Z,81.20
2022-10-29T10:15:16.549Z,80.27
2022-10-29T10:18:26.470Z,81.74
2022-10-29T10:21:30.154Z,83.24
2022-10-29T10:24:36.791Z,83.47
2022-10-29T10:27:38.817Z,83.12
2022-10-29T10:30:43.076Z,84.75
2022-10-29T10:33:52.701Z,84.87
2022-10-29T10:37:10.229Z,83.94
2022-10-29T10:40:24.894Z,83.55
2022-10-29T10:43:27.055Z,84.24
2022-10-29T10:46:35.350Z,84.68
2022-10-29T10:49:38.153Z,83.32
2022-10-29T10:52:40.206Z,82.51
2022-10-29T10:55:45.843Z,83.21
2022-10-29T10:59:07.993Z,82.57
2022-10-29T11:02:24.033Z,82.09
2022-10-29T11:05:33.918Z,82.53
2022-10-29T11:08:43.210Z,83.57
2022-10-29T11:11:59.414Z,84.29
2022-10-29T11:15:10.161Z,84.46
2022-10-29T11:21:30.065Z,84.15
2022-10-29T11:25:21.353Z,84.83
2022-10-29T11:29:19.299Z,84.05
2022-10-29T11:32:39.152Z,84.95
2022-10-29T11:35:48.164Z,84.37
2022-10-29T11:39:19.718Z,85.42
2022-10-29T11:42:21.817Z,86.82
2022-10-29T11:45:59.492Z,86.13
2022-10-29T11:49:14.569Z,86.61
2022-10-29T11:52:40.032Z,87.18
2022-10-29T11:55:57.593Z,88.60
2022-10-29T12:00:00.978Z,88.65
2022-10-29T12:03:24.558Z,87.22
2022-10-29T12:07:13.523Z,88.72
2022-10-29T12:10:52.217Z,88.53
2022-10-29T12:14:00.022Z,88.40
2022-10-29T12:17:10.902Z,88.61
2022-10-29T12:20:51.133Z,89.69
2022-10-29T12:24:27.820Z,89.19
2022-10-29T12:27:47.181Z,90.07
2022-10-29T12:31:19.868Z,88.76
2022-10-29T12:34:37.837Z,87.81
2022-10-29T12:38:20.897Z,88.69
2022-10-29T12:41:43.409Z,89.50
2022-10-29T12:45:26.140Z,90.05
2022-10-29T12:48:53.130Z,88.61
2022-10-29T12:52:02.622Z,88.75
2022-10-29T12:55:06.341Z,88.54
2022-10-29T12:58:46.677Z,89.10
2022-10-29T13:05:10.960Z,88.97
2022-10-29T13:08:26.629Z,90.05
2022-10-29T13:11:57.801Z,89.45
2022-10-29T13:15:09.813Z,89.44
2022-10-29T13:18:29.360Z,88.52
2022-10-29T13:22:14.370Z,88.92
2022-10-29T13:25:41.583Z,89.09
2022-10-29T13:28:46.935Z,88.69
2022-10-29T13:31:49.830Z,88.70
2022-10-29T13:35:03.190Z,88.52
2022-10-29T13:38:13.746Z,88.61
2022-10-29T13:41:27.821Z,88.06
2022-10-29T13:44:29.890Z,88.54
2022-10-29T13:47:31.985Z,87.95
2022-10-29T13:50:35.216Z,88.40
2022-10-29T13:53:55.731Z,87.88
2022-10-29T13:57:12.956Z,87.14
2022-10-29T14:00:19.940Z,87.56
2022-10-29T14:03:41.569Z,87.75
2022-10-29T14:06:43.617Z,86.88
2022-10-29T14:09:52.323Z,87.54
2022-10-29T14:13:41.395Z,86.25
2022-10-29T14:16:43.580Z,88.05
2022-10-29T14:19:50.876Z,86.99
2022-10-29T14:22:53.268Z,87.03
2022-10-29T14:25:57.199Z,87.00
2022-10-29T14:29:34.902Z,85.73
2022-10-29T14:32:39.127Z,85.15
2022-10-29T14:35:41.189Z,86.28
2022-10-29T14:38:52.474Z,86.59
2022-10-29T14:41:57.849Z,87.85
2022-10-29T14:45:03.041Z,86.45
2022-10-29T14:48:10.128Z,86.74
2022-10-29T14:51:19.988Z,87.59
2022-10-29T14:54:40.806Z,86.56
2022-10-29T14:57:46.041Z,86.22
2022-10-29T15:01:14.940Z,87.98
2022-10-29T15:04:28.894Z,88.53
2022-10-29T15:07:35.625Z,87.43
2022-10-29T15:10:54.560Z,87.78
2022-10-29T15:13:56.588Z,87.13
2022-10-29T15:16:59.103Z,88.41
2022-10-29T15:20:06.497Z,88.68
2022-10-29T15:23:34.382Z,88.22
2022-10-29T15:26:36.650Z,89.00
2022-10-29T15:29:43.143Z,88.56
2022-10-29T15:32:45.577Z,88.88
2022-10-29T15:35:58.534Z,88.90
2022-10-29T15:39:19.209Z,89.89
2022-10-29T15:42:28.688Z,89.86
2022-10-29T15:45:30.826Z,90.96
2022-10-29T15:48:39.311Z,89.97
2022-10-29T15:51:41.382Z,89.95
2022-10-29T15:54:43.636Z,89.27
2022-10-29T15:57:51.644Z,89.82
2022-10-29T16:00:53.765Z,89.00
2022-10-29T16:03:55.877Z,90.13
2022-10-29T16:06:57.949Z,89.33
2022-10-29T16:10:05.423Z,90.36
2022-10-29T16:13:10.866Z,90.70
2022-10-29T16:16:18.144Z,90.82
2022-10-29T16:19:20.284Z,90.80
2022-10-29T16:22:31.410Z,91.71
2022-10-29T16:25:33.523Z,90.71
2022-10-29T16:28:35.576Z,91.77
2022-10-29T16:31:37.624Z,91.36
2022-10-29T16:34:39.684Z,90.68
2022-10-29T16:37:41.775Z,90.45
2022-10-29T16:40:43.892Z,91.97
2022-10-29T16:43:46.283Z,93.03
2022-10-29T16:46:48.329Z,94.33
2022-10-29T16:49:50.400Z,92.86
2022-10-29T16:53:02.258Z,92.62
2022-10-29T16:56:04.848Z,93.35
2022-10-29T16:59:07.010Z,92.92
2022-10-29T17:02:11.033Z,92.33
2022-10-29T17:05:13.411Z,91.17
2022-10-29T17:08:15.511Z,91.49
2022-10-29T17:11:17.708Z,90.12
2022-10-29T17:14:19.793Z,91.35
2022-10-29T17:17:21.846Z,91.94
2022-10-29T17:20:23.911Z,92.77
2022-10-29T17:23:25.997Z,93.23
2022-10-29T17:26:28.015Z,95.06
2022-10-29T17:29:33.818Z,95.97
2022-10-29T17:32:38.403Z,95.39
2022-10-29T17:35:40.563Z,95.56
2022-10-29T17:38:42.640Z,95.79
2022-10-29T17:41:44.678Z,95.58
2022-10-29T17:44:46.726Z,96.67
2022-10-29T17:47:49.185Z,95.79
2022-10-29T17:50:58.569Z,95.67
2022-10-29T17:54:00.624Z,94.15
2022-10-29T17:57:02.670Z,95.35
2022-10-29T18:00:05.416Z,94.72
2022-10-29T18:03:09.215Z,95.01
2022-10-29T18:06:13.896Z,94.30
2022-10-29T18:09:21.178Z,96.19
2022-10-29T18:12:23.540Z,96.27
2022-10-29T18:15:25.650Z,96.20
2022-10-29T18:18:27.679Z,95.58
2022-10-29T18:21:31.097Z,96.31
2022-10-29T18:24:33.135Z,94.98
2022-10-29T18:27:35.241Z,95.03
2022-10-29T18:30:37.281Z,93.53
2022-10-29T18:33:39.628Z,93.64
2022-10-29T18:36:42.964Z,94.11
2022-10-29T18:39:45.021Z,93.06
2022-10-29T18:42:47.109Z,93.47
2022-10-29T18:46:00.366Z,94.53
2022-10-29T18:49:02.449Z,94.76
2022-10-29T18:52:04.605Z,95.36
2022-10-29T18:55:07.249Z,94.43
2022-10-29T18:58:09.349Z,95.50
2022-10-29T19:01:23.213Z,95.52
2022-10-29T19:04:25.406Z,95.12
2022-10-29T19:07:27.461Z,95.47
2022-10-29T19:10:29.617Z,94.45
2022-10-29T19:13:31.919Z,96.09
2022-10-29T19:16:34.104Z,95.70
2022-10-29T19:19:36.121Z,94.43
2022-10-29T19:22:38.148Z,97.50
2022-10-29T19:25:41.080Z,95.40
2022-10-29T19:28:43.914Z,96.02
2022-10-29T19:31:46.628Z,95.83
2022-10-29T19:34:48.813Z,94.13
2022-10-29T19:37:50.946Z,96.00
2022-10-29T19:40:53.292Z,95.27
2022-10-29T19:44:00.092Z,94.88
2022-10-29T19:47:02.173Z,94.25
2022-10-29T19:50:05.368Z,95.93
2022-10-29T19:53:07.439Z,95.79
2022-10-29T19:56:14.313Z,94.68
2022-10-29T19:59:16.358Z,93.61
2022-10-29T20:02:18.424Z,94.72
2022-10-29T20:05:21.031Z,95.15
2022-10-29T20:08:23.388Z,94.11
2022-10-29T20:11:25.443Z,94.33
2022-10-29T20:14:29.167Z,94.77
2022-10-29T20:17:31.689Z,93.31
2022-10-29T20:20:33.785Z,93.03
2022-10-29T20:23:35.845Z,92.95
2022-10-29T20:26:37.921Z,94.17
2022-10-29T20:29:39.945Z,93.02
2022-10-29T20:32:42.039Z,92.08
2022-10-29T20:35:44.103Z,93.97
2022-10-29T20:38:52.582Z,93.79
2022-10-29T20:41:54.627Z,94.68
2022-10-29T20:44:56.699Z,94.58
2022-10-29T20:48:01.910Z,93.35
2022-10-29T20:51:04.341Z,93.14
2022-10-29T20:54:06.580Z,92.62
2022-10-29T20:57:08.674Z,93.59
2022-10-29T21:00:11.402Z,92.60
2022-10-29T21:03:14.679Z,92.75
2022-10-29T21:06:17.626Z,92.88
2022-10-29T21:09:19.910Z,92.56
2022-10-29T21:12:23.456Z,92.47
2022-10-29T21:15:25.582Z,93.03
2022-10-29T21:18:27.646Z,92.74
2022-10-29T21:21:30.200Z,92.43
2022-10-29T21:24:32.310Z,91.67
2022-10-29T21:27:34.388Z,92.83
2022-10-29T21:30:36.606Z,91.74
2022-10-29T21:33:38.669Z,91.75
2022-10-29T21:36:40.698Z,91.40
2022-10-29T21:39:42.761Z,90.71
2022-10-29T21:42:44.818Z,91.96
2022-10-29T21:45:46.897Z,90.54
2022-10-29T21:48:48.918Z,89.44
2022-10-29T21:51:51.029Z,90.03
2022-10-29T21:54:53.068Z,87.49
2022-10-29T21:57:55.388Z,87.04
2022-10-29T22:01:14.369Z,85.99
2022-10-29T22:04:16.591Z,86.94
2022-10-29T22:07:18.645Z,88.73
2022-10-29T22:10:20.709Z,87.82
2022-10-29T22:13:22.730Z,87.99
2022-10-29T22:16:24.796Z,87.71
2022-10-29T22:19:26.853Z,87.89
2022-10-29T22:22:29.554Z,88.76
2022-10-29T22:25:31.593Z,88.57
2022-10-29T22:28:33.664Z,88.19
2022-10-29T22:31:35.742Z,87.44
2022-10-29T22:34:37.795Z,88.26
2022-10-29T22:37:39.809Z,86.92
2022-10-29T22:40:41.938Z,86.89
2022-10-29T22:43:44.479Z,85.99
2022-10-29T22:46:46.560Z,86.33
2022-10-29T22:49:48.597Z,86.58
2022-10-29T22:52:50.677Z,86.85
2022-10-29T22:55:53.467Z,87.90
2022-10-29T22:58:55.541Z,87.14
2022-10-29T23:01:57.744Z,87.15
2022-10-29T23:04:59.817Z,86.17
2022-10-29T23:08:01.855Z,87.04
2022-10-29T23:11:22.129Z,86.17
2022-10-29T23:14:24.210Z,87.75
2022-10-29T23:17:26.282Z,87.65
2022-10-29T23:20:28.359Z,86.90
2022-10-29T23:23:30.820Z,86.07
2022-10-29T23:26:32.867Z,86.05
2022-10-29T23:29:34.895Z,85.70
2022-10-29T23:32:36.917Z,84.31
2022-10-29T23:35:38.948Z,84.83
2022-10-29T23:38:41.098Z,84.40
2022-10-29T23:41:43.176Z,85.72
2022-10-29T23:44:45.193Z,85.64
2022-10-29T23:47:47.220Z,85.96
2022-10-29T23:50:49.340Z,85.21
2022-10-29T23:53:54.751Z,85.90
2022-10-29T23:56:59.561Z,86.50
